createdAt,value
2022-08-27T00:00:54.226Z,4.80
2022-08-27T00:03:22.523Z,5.00
2022-08-27T00:05:50.962Z,5.40
2022-08-27T00:08:19.366Z,4.95
2022-08-27T00:10:47.566Z,4.28
2022-08-27T00:13:16.982Z,4.70
2022-08-27T00:15:45.851Z,5.25
2022-08-27T00:18:16.049Z,5.28
2022-08-27T00:20:46.389Z,5.13
2022-08-27T00:23:14.585Z,6.00
2022-08-27T00:25:42.801Z,5.97
2022-08-27T00:28:11.208Z,5.70
2022-08-27T00:30:40.047Z,5.65
2022-08-27T00:33:08.239Z,6.25
2022-08-27T00:35:38.234Z,5.65
2022-08-27T00:38:07.333Z,5.80
2022-08-27T00:40:36.163Z,5.95
2022-08-27T00:43:04.535Z,5.78
2022-08-27T00:45:38.899Z,5.35
2022-08-27T00:48:10.758Z,5.05
2022-08-27T00:50:44.690Z,5.20
2022-08-27T00:53:17.822Z,5.50
2022-08-27T00:55:50.445Z,5.18
2022-08-27T00:58:27.563Z,5.15
2022-08-27T01:00:57.489Z,4.97
2022-08-27T01:03:26.986Z,4.90
2022-08-27T01:06:01.622Z,4.70
2022-08-27T01:08:33.776Z,4.47
2022-08-27T01:11:02.762Z,4.93
2022-08-27T01:13:58.687Z,4.57
2022-08-27T01:16:28.224Z,3.85
2022-08-27T01:19:00.883Z,4.32
2022-08-27T01:21:40.219Z,3.45
2022-08-27T01:24:32.540Z,3.92
2022-08-27T01:27:02.422Z,3.58
2022-08-27T01:29:32.325Z,3.95
2022-08-27T01:32:07.968Z,3.60
2022-08-27T01:34:36.357Z,3.70
2022-08-27T01:37:06.592Z,3.42
2022-08-27T01:39:39.447Z,3.28
2022-08-27T01:42:12.897Z,3.72
2022-08-27T01:44:49.904Z,3.05
2022-08-27T01:47:20.581Z,3.50
2022-08-27T01:49:49.557Z,3.08
2022-08-27T01:52:22.021Z,3.33
2022-08-27T01:54:51.870Z,3.35
2022-08-27T01:57:25.273Z,3.47
2022-08-27T01:59:54.852Z,2.90
2022-08-27T02:02:23.323Z,3.10
2022-08-27T02:04:52.198Z,3.17
2022-08-27T02:07:20.591Z,3.25
2022-08-27T02:09:48.822Z,3.38
2022-08-27T02:12:18.515Z,2.80
2022-08-27T02:14:46.790Z,3.50
2022-08-27T02:17:14.928Z,3.78
2022-08-27T02:19:43.356Z,3.60
2022-08-27T02:22:11.515Z,4.20
2022-08-27T02:24:40.486Z,3.55
2022-08-27T02:27:09.429Z,3.80
2022-08-27T02:29:38.952Z,3.55
2022-08-27T02:32:07.487Z,3.58
2022-08-27T02:34:46.045Z,3.83
2022-08-27T02:37:14.477Z,3.30
2022-08-27T02:39:46.008Z,3.67
2022-08-27T02:42:14.380Z,3.70
2022-08-27T02:44:44.060Z,3.75
2022-08-27T02:47:12.697Z,3.95
2022-08-27T02:49:41.103Z,3.97
2022-08-27T02:52:09.859Z,3.72
2022-08-27T02:54:38.664Z,3.90
2022-08-27T02:57:07.848Z,4.00
2022-08-27T02:59:36.454Z,4.13
2022-08-27T03:02:06.292Z,4.13
2022-08-27T03:04:35.927Z,3.83
2022-08-27T03:07:04.518Z,3.90
2022-08-27T03:09:32.729Z,3.75
2022-08-27T03:12:02.146Z,4.38
2022-08-27T03:14:31.305Z,4.53
2022-08-27T03:17:20.337Z,3.97
2022-08-27T03:19:50.638Z,4.18
2022-08-27T03:22:19.012Z,4.57
2022-08-27T03:24:47.216Z,3.80
2022-08-27T03:27:15.528Z,4.13
2022-08-27T03:29:43.703Z,3.83
2022-08-27T03:32:11.886Z,3.90
2022-08-27T03:34:40.189Z,3.70
2022-08-27T03:37:09.767Z,3.88
2022-08-27T03:39:37.990Z,3.75
2022-08-27T03:42:06.648Z,4.15
2022-08-27T03:44:35.166Z,3.50
2022-08-27T03:47:04.098Z,3.78
2022-08-27T03:49:32.884Z,3.38
2022-08-27T03:52:01.192Z,4.00
2022-08-27T03:54:31.233Z,3.78
2022-08-27T03:56:59.443Z,3.53
2022-08-27T03:59:27.683Z,3.03
2022-08-27T04:01:55.979Z,3.13
2022-08-27T04:04:24.820Z,3.03
2022-08-27T04:06:53.390Z,3.10
2022-08-27T04:09:27.027Z,2.88
2022-08-27T04:11:56.996Z,3.28
2022-08-27T04:14:27.326Z,3.10
2022-08-27T04:16:56.962Z,3.42
2022-08-27T04:19:27.941Z,3.03
2022-08-27T04:22:01.778Z,3.03
2022-08-27T04:24:31.818Z,3.15
2022-08-27T04:27:02.514Z,3.25
2022-08-27T04:29:31.744Z,2.83
2022-08-27T04:32:01.039Z,3.45
2022-08-27T04:34:29.309Z,3.05
2022-08-27T04:36:58.750Z,2.85
2022-08-27T04:39:28.062Z,3.33
2022-08-27T04:42:00.850Z,2.63
2022-08-27T04:44:33.440Z,3.08
2022-08-27T04:47:05.561Z,3.08
2022-08-27T04:49:34.873Z,3.50
2022-08-27T04:52:04.830Z,2.90
2022-08-27T04:54:33.941Z,2.90
2022-08-27T04:57:05.791Z,2.88
2022-08-27T04:59:35.902Z,3.08
2022-08-27T05:02:05.933Z,3.10
2022-08-27T05:04:37.822Z,2.80
2022-08-27T05:07:06.281Z,3.15
2022-08-27T05:09:35.186Z,3.28
2022-08-27T05:12:05.236Z,2.80
2022-08-27T05:14:33.562Z,3.20
2022-08-27T05:17:02.703Z,2.63
2022-08-27T05:19:31.369Z,2.92
2022-08-27T05:21:59.622Z,2.63
2022-08-27T05:24:27.914Z,2.85
2022-08-27T05:26:56.094Z,3.53
2022-08-27T05:29:28.462Z,3.67
2022-08-27T05:31:56.668Z,3.53
2022-08-27T05:34:26.359Z,3.47
2022-08-27T05:36:55.748Z,3.20
2022-08-27T05:39:24.318Z,4.05
2022-08-27T05:41:53.790Z,4.00
2022-08-27T05:44:40.923Z,3.60
2022-08-27T05:47:11.921Z,3.88
2022-08-27T05:49:40.377Z,3.67
2022-08-27T05:52:12.733Z,3.88
2022-08-27T05:54:41.181Z,3.67
2022-08-27T05:57:10.179Z,3.20
2022-08-27T05:59:56.669Z,3.45
2022-08-27T06:02:26.953Z,3.15
2022-08-27T06:04:55.608Z,3.25
2022-08-27T06:07:24.027Z,3.28
2022-08-27T06:09:52.294Z,3.03
2022-08-27T06:12:20.461Z,3.25
2022-08-27T06:14:56.540Z,3.55
2022-08-27T06:17:26.199Z,2.70
2022-08-27T06:19:54.365Z,2.95
2022-08-27T06:22:22.901Z,3.03
2022-08-27T06:24:51.775Z,3.50
2022-08-27T06:27:20.981Z,2.30
2022-08-27T06:29:49.310Z,2.65
2022-08-27T06:32:17.812Z,2.78
2022-08-27T06:34:47.462Z,2.75
2022-08-27T06:37:15.680Z,2.60
2022-08-27T06:39:43.950Z,2.63
2022-08-27T06:42:14.458Z,3.10
2022-08-27T06:44:43.118Z,3.30
2022-08-27T06:47:11.850Z,3.00
2022-08-27T06:49:46.242Z,3.40
2022-08-27T06:52:16.742Z,3.63
2022-08-27T06:54:45.875Z,3.75
2022-08-27T06:57:14.149Z,3.42
2022-08-27T06:59:42.382Z,3.83
2022-08-27T07:02:10.811Z,4.00
2022-08-27T07:04:39.114Z,3.30
2022-08-27T07:09:43.447Z,4.00
2022-08-27T07:12:11.665Z,3.65
2022-08-27T07:14:59.089Z,4.10
2022-08-27T07:17:29.369Z,3.80
2022-08-27T07:19:58.830Z,4.15
2022-08-27T07:22:29.103Z,4.53
2022-08-27T07:25:24.361Z,4.03
2022-08-27T07:27:57.277Z,4.03
2022-08-27T07:33:19.662Z,4.43
2022-08-27T07:35:51.248Z,3.95
2022-08-27T07:38:39.102Z,3.97
2022-08-27T07:41:36.075Z,4.82
2022-08-27T07:44:26.427Z,4.45
2022-08-27T07:47:11.445Z,4.47
2022-08-27T07:52:26.644Z,4.30
2022-08-27T07:54:55.900Z,4.65
2022-08-27T07:57:26.365Z,4.63
2022-08-27T08:00:00.748Z,4.30
2022-08-27T08:02:30.939Z,4.30
2022-08-27T08:08:39.470Z,4.18
2022-08-27T09:00:16.782Z,3.42
2022-08-27T09:02:55.751Z,3.30
2022-08-27T09:08:37.705Z,3.20
2022-08-27T09:11:23.777Z,3.15
2022-08-27T09:13:57.323Z,3.63
2022-08-27T09:16:27.859Z,3.38
2022-08-27T09:18:56.440Z,2.97
2022-08-27T09:21:38.142Z,3.50
2022-08-27T09:24:13.351Z,3.00
2022-08-27T09:26:51.833Z,3.00
2022-08-27T09:29:20.907Z,3.00
2022-08-27T09:32:00.279Z,3.10
2022-08-27T09:34:35.906Z,3.20
2022-08-27T09:37:11.502Z,3.47
2022-08-27T09:39:52.022Z,3.05
2022-08-27T09:42:30.925Z,2.42
2022-08-27T09:44:59.737Z,2.88
2022-08-27T09:47:29.541Z,2.75
2022-08-27T09:50:09.869Z,2.65
2022-08-27T09:52:51.121Z,3.25
2022-08-27T09:55:36.721Z,2.92
2022-08-27T09:58:07.462Z,2.58
2022-08-27T10:00:40.155Z,2.60
2022-08-27T10:03:11.407Z,2.33
2022-08-27T10:05:45.140Z,2.20
2022-08-27T10:08:25.303Z,1.85
2022-08-27T10:11:00.108Z,2.00
2022-08-27T10:13:34.287Z,2.22
2022-08-27T10:16:22.753Z,1.90
2022-08-27T10:19:01.990Z,1.77
2022-08-27T10:21:40.425Z,1.90
2022-08-27T10:24:22.019Z,1.63
2022-08-27T10:26:59.892Z,1.45
2022-08-27T10:29:37.730Z,1.55
2022-08-27T10:32:21.237Z,1.63
2022-08-27T10:35:04.377Z,1.50
2022-08-27T10:37:41.349Z,2.10
2022-08-27T10:40:18.007Z,1.80
2022-08-27T10:42:58.721Z,1.58
2022-08-27T10:45:42.731Z,1.58
2022-08-27T10:48:27.033Z,1.45
2022-08-27T10:51:07.119Z,1.80
2022-08-27T10:53:44.099Z,1.70
2022-08-27T10:56:20.341Z,1.75
2022-08-27T10:59:02.451Z,1.42
2022-08-27T11:01:41.680Z,1.75
2022-08-27T11:04:15.755Z,1.70
2022-08-27T11:06:53.797Z,1.77
2022-08-27T11:09:26.566Z,1.98
2022-08-27T11:12:15.774Z,1.40
2022-08-27T11:14:50.657Z,2.13
2022-08-27T11:17:26.863Z,1.80
2022-08-27T11:20:07.128Z,2.05
2022-08-27T11:22:42.490Z,1.80
2022-08-27T11:25:31.506Z,1.60
2022-08-27T11:28:01.773Z,1.70
2022-08-27T11:30:40.681Z,1.80
2022-08-27T11:33:17.790Z,1.65
2022-08-27T11:36:10.010Z,1.35
2022-08-27T11:38:56.465Z,2.15
2022-08-27T11:41:49.996Z,1.65
2022-08-27T11:44:20.593Z,2.03
2022-08-27T11:46:53.527Z,1.70
2022-08-27T11:49:35.533Z,2.17
2022-08-27T11:52:07.263Z,1.70
2022-08-27T11:54:49.061Z,1.20
2022-08-27T11:57:28.458Z,1.73
2022-08-27T11:59:57.195Z,1.70
2022-08-27T12:02:29.463Z,1.60
2022-08-27T12:05:11.695Z,1.50
2022-08-27T12:07:50.856Z,1.50
2022-08-27T12:10:31.498Z,1.77
2022-08-27T12:13:18.182Z,1.98
2022-08-27T12:16:03.284Z,1.73
2022-08-27T12:19:07.524Z,1.73
2022-08-27T12:21:49.756Z,1.50
2022-08-27T12:24:49.864Z,1.98
2022-08-27T12:27:34.440Z,1.67
2022-08-27T12:30:21.722Z,1.50
2022-08-27T12:32:53.005Z,2.10
2022-08-27T12:35:24.804Z,1.52
2022-08-27T12:37:56.953Z,1.83
2022-08-27T12:40:29.470Z,1.60
2022-08-27T12:43:09.098Z,1.50
2022-08-27T12:45:47.083Z,1.63
2022-08-27T12:48:18.629Z,1.40
2022-08-27T12:50:54.221Z,1.83
2022-08-27T12:53:41.053Z,1.63
2022-08-27T12:56:40.453Z,1.40
2022-08-27T12:59:40.628Z,1.73
2022-08-27T13:02:31.223Z,1.45
2022-08-27T13:05:10.089Z,1.40
2022-08-27T13:07:43.943Z,1.50
2022-08-27T13:10:18.170Z,1.38
2022-08-27T13:12:49.128Z,1.75
2022-08-27T13:15:21.146Z,1.30
2022-08-27T13:17:52.777Z,1.60
2022-08-27T13:20:25.484Z,1.80
2022-08-27T13:22:55.343Z,1.98
2022-08-27T13:25:28.855Z,1.70
2022-08-27T13:28:07.845Z,1.77
2022-08-27T13:30:41.620Z,1.58
2022-08-27T13:33:15.967Z,1.60
2022-08-27T13:35:47.474Z,1.33
2022-08-27T13:38:17.100Z,1.60
2022-08-27T13:40:56.779Z,1.50
2022-08-27T13:43:34.261Z,1.70
2022-08-27T13:46:09.108Z,1.35
2022-08-27T13:48:41.512Z,2.13
2022-08-27T13:51:10.305Z,1.60
2022-08-27T13:54:01.710Z,1.65
2022-08-27T13:56:32.925Z,1.42
2022-08-27T13:59:12.409Z,1.52
2022-08-27T14:01:45.223Z,1.50
2022-08-27T14:04:25.243Z,1.20
2022-08-27T14:06:54.675Z,1.60
2022-08-27T14:09:26.643Z,1.60
2022-08-27T14:12:03.455Z,1.50
2022-08-27T14:14:37.848Z,1.27
2022-08-27T14:17:22.034Z,1.55
2022-08-27T14:19:50.733Z,1.98
2022-08-27T14:22:19.110Z,1.98
2022-08-27T14:24:47.344Z,1.63
2022-08-27T14:27:20.157Z,1.27
2022-08-27T14:29:49.637Z,2.17
2022-08-27T14:32:20.974Z,2.15
2022-08-27T14:34:49.633Z,1.83
2022-08-27T14:37:17.977Z,1.60
2022-08-27T14:39:49.239Z,1.83
2022-08-27T14:42:18.557Z,1.50
2022-08-27T14:44:47.861Z,1.40
2022-08-27T14:47:18.233Z,1.40
2022-08-27T14:49:48.598Z,1.23
2022-08-27T14:52:17.217Z,1.48
2022-08-27T14:54:45.665Z,2.20
2022-08-27T14:57:15.124Z,1.70
2022-08-27T14:59:43.499Z,1.30
2022-08-27T15:02:14.799Z,1.42
2022-08-27T15:04:46.506Z,1.52
2022-08-27T15:07:16.382Z,1.55
2022-08-27T15:09:45.113Z,1.67
2022-08-27T15:12:21.720Z,1.42
2022-08-27T15:14:55.400Z,1.60
2022-08-27T15:17:34.345Z,1.60
2022-08-27T15:20:07.974Z,3.17
2022-08-27T15:22:37.863Z,1.90
2022-08-27T15:25:10.638Z,2.05
2022-08-27T15:27:39.284Z,1.70
2022-08-27T15:30:11.048Z,1.52
2022-08-27T15:32:45.690Z,1.27
2022-08-27T15:35:18.659Z,1.50
2022-08-27T15:37:46.932Z,1.67
2022-08-27T15:40:18.592Z,1.40
2022-08-27T15:42:49.247Z,1.77
2022-08-27T15:45:17.464Z,1.52
2022-08-27T15:47:45.851Z,1.60
2022-08-27T15:50:15.446Z,1.80
2022-08-27T15:52:44.531Z,5.47
2022-08-27T15:55:21.689Z,2.30
2022-08-27T15:57:50.513Z,1.33
2022-08-27T16:00:21.802Z,1.55
2022-08-27T16:02:51.159Z,1.35
2022-08-27T16:05:22.636Z,1.40
2022-08-27T16:07:51.410Z,1.38
2022-08-27T16:10:25.210Z,6.82
2022-08-27T16:12:53.755Z,2.10
2022-08-27T16:15:22.517Z,1.60
2022-08-27T16:17:56.583Z,1.50
2022-08-27T16:20:30.078Z,1.63
2022-08-27T16:22:58.376Z,2.10
2022-08-27T16:25:36.884Z,2.30
2022-08-27T16:28:19.724Z,1.35
2022-08-27T16:30:50.129Z,1.80
2022-08-27T16:33:39.517Z,1.67
2022-08-27T16:36:11.786Z,2.05
2022-08-27T16:38:42.209Z,2.85
2022-08-27T16:41:10.762Z,1.42
2022-08-27T16:43:45.050Z,1.30
2022-08-27T16:46:13.423Z,1.83
2022-08-27T16:49:02.353Z,2.00
2022-08-27T16:51:37.517Z,1.40
2022-08-27T16:54:11.067Z,3.38
2022-08-27T16:56:40.978Z,1.40
2022-08-27T16:59:13.035Z,1.52
2022-08-27T17:01:45.374Z,2.40
2022-08-27T17:04:23.701Z,1.40
2022-08-27T17:06:56.722Z,1.42
2022-08-27T17:09:26.579Z,1.80
2022-08-27T17:11:58.745Z,3.13
2022-08-27T17:14:27.528Z,3.75
2022-08-27T17:17:04.576Z,3.15
2022-08-27T17:19:37.002Z,2.90
2022-08-27T17:22:09.480Z,2.00
2022-08-27T17:24:39.353Z,1.98
2022-08-27T17:27:18.027Z,2.13
2022-08-27T17:29:46.568Z,1.70
2022-08-27T17:32:15.396Z,1.95
2022-08-27T17:34:44.853Z,2.28
2022-08-27T18:04:34.497Z,2.10
2022-08-27T18:10:03.719Z,3.28
2022-08-27T18:50:30.726Z,2.30
2022-08-27T19:00:10.335Z,2.60
2022-08-27T19:07:22.894Z,2.30
2022-08-27T19:20:44.407Z,3.50
2022-08-27T19:23:22.160Z,5.03
2022-08-27T19:26:01.542Z,3.05
2022-08-27T19:31:46.658Z,2.53
2022-08-27T20:52:15.872Z,3.75
2022-08-27T20:54:46.643Z,4.05
2022-08-27T20:57:18.060Z,3.90
2022-08-27T21:00:04.068Z,4.72
2022-08-27T21:02:35.141Z,4.22
2022-08-27T21:05:12.628Z,3.83
2022-08-27T21:07:42.289Z,4.35
2022-08-27T21:10:10.953Z,4.85
2022-08-27T21:12:39.187Z,4.75
2022-08-27T21:15:09.453Z,4.55
2022-08-27T21:17:38.099Z,4.60
2022-08-27T21:20:11.189Z,4.63
2022-08-27T21:22:40.589Z,4.60
2022-08-27T21:25:10.385Z,4.45
2022-08-27T21:27:39.119Z,4.65
2022-08-27T21:30:10.857Z,4.65
2022-08-27T21:32:39.667Z,4.95
2022-08-27T21:35:11.114Z,4.78
2022-08-27T21:37:39.305Z,4.95
2022-08-27T21:40:10.194Z,5.18
2022-08-27T21:42:38.957Z,4.70
2022-08-27T21:45:08.425Z,4.70
2022-08-27T21:47:36.764Z,6.03
2022-08-27T21:50:09.843Z,5.20
2022-08-27T21:52:38.807Z,5.50
2022-08-27T21:55:09.197Z,5.30
2022-08-27T21:57:37.944Z,4.72
2022-08-27T22:00:22.884Z,5.88
2022-08-27T22:02:54.825Z,5.05
2022-08-27T22:05:24.886Z,5.65
2022-08-27T22:07:53.112Z,5.95
2022-08-27T22:10:21.533Z,5.50
2022-08-27T22:12:49.678Z,5.85
2022-08-27T22:15:21.665Z,5.70
2022-08-27T22:17:51.718Z,5.85
2022-08-27T22:20:20.740Z,5.70
2022-08-27T22:22:50.404Z,6.03
2022-08-27T22:25:18.658Z,5.88
2022-08-27T22:27:47.389Z,6.03
2022-08-27T22:30:17.383Z,6.13
2022-08-27T22:32:45.860Z,6.28
2022-08-27T22:35:17.382Z,6.28
2022-08-27T22:37:45.921Z,6.30
2022-08-27T22:40:20.423Z,6.13
2022-08-27T22:42:48.765Z,6.35
2022-08-27T22:45:17.820Z,6.47
2022-08-27T22:47:45.997Z,6.25
2022-08-27T22:50:14.741Z,6.32
2022-08-27T22:52:43.128Z,6.40
2022-08-27T22:55:18.719Z,7.47
2022-08-27T22:57:47.521Z,6.43
2022-08-27T23:00:19.305Z,7.03
2022-08-27T23:02:47.741Z,7.15
2022-08-27T23:05:17.393Z,6.97
2022-08-27T23:07:46.257Z,6.70
2022-08-27T23:10:19.071Z,6.97
2022-08-27T23:12:48.363Z,7.32
2022-08-27T23:15:20.976Z,7.32
2022-08-27T23:17:49.487Z,6.53
2022-08-27T23:20:18.612Z,7.68
2022-08-27T23:22:46.859Z,7.25
2022-08-27T23:25:35.399Z,7.97
2022-08-27T23:28:06.464Z,6.88
2022-08-27T23:30:36.708Z,7.55
2022-08-27T23:33:05.304Z,7.18
2022-08-27T23:35:33.655Z,7.50
2022-08-27T23:38:01.859Z,7.55
2022-08-27T23:40:31.523Z,8.27
2022-08-27T23:42:59.931Z,7.78
2022-08-27T23:45:29.783Z,7.63
2022-08-27T23:47:58.028Z,8.13
2022-08-27T23:50:33.762Z,7.88
2022-08-27T23:53:02.506Z,8.18
2022-08-27T23:55:32.415Z,8.90
2022-08-27T23:58:00.947Z,7.93
